Time;durP1;ratioP1;P1;durP2;ratioP2;P2;SDS_P1;SDS_P2;PMS_P1;PMS_P2;Temp;Humidity;BMP_temperature;BMP_pressure;BME280_temperature;BME280_humidity;BME280_pressure;Samples;Min_cycle;Max_cycle;Signal;HPM_P1;HPM_P2
2021/10/24 00:01:04;;;;;;;18.03;8.73;;;2.20;99.90;;;;;;5165517;28;20204;-72
2021/10/24 00:03:36;;;;;;;16.10;8.13;;;2.20;99.90;;;;;;5163290;28;20334;-68
2021/10/24 00:06:11;;;;;;;20.53;8.27;;;2.20;99.90;;;;;;5240101;28;20234;-68
2021/10/24 00:08:43;;;;;;;18.07;8.43;;;2.10;99.90;;;;;;5180500;28;20237;-70
2021/10/24 00:11:15;;;;;;;22.27;8.47;;;2.10;99.90;;;;;;5233307;28;20208;-68
2021/10/24 00:13:47;;;;;;;15.47;8.20;;;2.10;99.90;;;;;;5224323;28;20354;-69
2021/10/24 00:16:20;;;;;;;19.60;8.43;;;2.10;99.90;;;;;;5270943;28;20551;-71
2021/10/24 00:18:53;;;;;;;19.77;8.10;;;2.00;99.90;;;;;;5179048;28;20966;-67
2021/10/24 00:21:25;;;;;;;21.60;8.70;;;2.00;99.90;;;;;;5222972;28;20549;-70
2021/10/24 00:23:57;;;;;;;14.63;7.73;;;2.00;99.90;;;;;;5185968;28;20329;-69
2021/10/24 00:26:29;;;;;;;18.73;8.77;;;2.00;99.90;;;;;;5213337;28;20223;-70
2021/10/24 00:29:01;;;;;;;14.90;8.40;;;1.90;99.90;;;;;;5179922;28;20227;-70
2021/10/24 00:31:34;;;;;;;17.90;8.20;;;2.00;99.90;;;;;;5222446;28;20231;-69
2021/10/24 00:34:06;;;;;;;16.53;8.33;;;2.00;99.90;;;;;;5178313;28;20223;-71
2021/10/24 00:36:39;;;;;;;17.67;8.63;;;1.90;99.90;;;;;;5185059;28;20207;-69
2021/10/24 00:39:13;;;;;;;18.07;8.53;;;2.00;99.90;;;;;;5184547;28;20286;-70
2021/10/24 00:41:45;;;;;;;17.37;8.00;;;1.90;99.90;;;;;;5185368;28;20202;-66
2021/10/24 00:44:29;;;;;;;16.80;7.23;;;2.00;99.90;;;;;;5184699;28;20300;-69
2021/10/24 00:47:05;;;;;;;14.50;7.53;;;1.90;99.90;;;;;;5235641;28;20230;-69
2021/10/24 00:49:37;;;;;;;19.10;7.80;;;1.90;99.90;;;;;;5252043;28;20233;-69
2021/10/24 00:52:10;;;;;;;17.90;7.43;;;1.90;99.90;;;;;;5251595;28;20206;-69
2021/10/24 00:54:43;;;;;;;16.20;7.47;;;1.90;99.90;;;;;;5184619;28;20584;-69
2021/10/24 00:57:21;;;;;;;16.63;7.83;;;1.90;99.90;;;;;;5251756;28;20327;-70
2021/10/24 00:59:53;;;;;;;18.17;7.93;;;2.00;99.90;;;;;;5251248;28;20241;-71
2021/10/24 01:02:27;;;;;;;17.50;8.33;;;2.00;99.90;;;;;;5218615;28;20218;-68
2021/10/24 01:04:59;;;;;;;19.47;7.93;;;2.00;99.90;;;;;;5184665;28;20570;-70
2021/10/24 01:07:33;;;;;;;16.17;7.83;;;2.00;99.90;;;;;;5184865;28;20217;-71
2021/10/24 01:10:07;;;;;;;17.60;7.60;;;1.90;99.90;;;;;;5235084;28;20708;-71
2021/10/24 01:12:41;;;;;;;16.03;8.03;;;2.00;99.90;;;;;;5252554;28;20227;-68
2021/10/24 01:15:14;;;;;;;17.97;7.67;;;1.90;99.90;;;;;;5251892;28;20242;-68
2021/10/24 01:17:48;;;;;;;14.97;7.50;;;2.00;99.90;;;;;;5251980;28;20635;-69
2021/10/24 01:20:23;;;;;;;13.23;7.60;;;2.00;99.90;;;;;;5269798;28;20246;-67
2021/10/24 01:22:57;;;;;;;14.97;6.97;;;1.90;99.90;;;;;;5235608;28;20203;-68
2021/10/24 01:25:30;;;;;;;16.00;8.00;;;2.00;99.90;;;;;;5269717;28;20238;-69
2021/10/24 01:28:02;;;;;;;16.60;7.80;;;1.90;99.90;;;;;;5252644;28;20204;-68
2021/10/24 01:30:34;;;;;;;12.60;6.40;;;1.90;99.90;;;;;;5251785;28;20242;-72
2021/10/24 01:33:09;;;;;;;14.47;7.10;;;1.90;99.90;;;;;;5273499;28;20200;-70
2021/10/24 01:36:03;;;;;;;15.47;7.13;;;1.90;99.90;;;;;;5273404;28;20235;-76
2021/10/24 01:38:36;;;;;;;13.07;6.73;;;1.90;99.90;;;;;;5273121;28;20580;-70
2021/10/24 01:41:10;;;;;;;13.67;6.43;;;1.90;99.90;;;;;;5273507;28;20257;-72
2021/10/24 01:43:44;;;;;;;13.20;7.03;;;1.90;99.90;;;;;;5256119;28;20204;-69
2021/10/24 01:46:19;;;;;;;16.70;7.20;;;1.90;99.90;;;;;;5240091;28;20607;-69
2021/10/24 01:48:52;;;;;;;16.43;7.07;;;1.90;99.90;;;;;;5255066;28;20242;-67
2021/10/24 01:51:24;;;;;;;13.40;6.67;;;1.80;99.90;;;;;;5273428;28;20227;-71
2021/10/24 01:53:56;;;;;;;14.83;7.23;;;1.80;99.90;;;;;;5272585;28;20203;-69
2021/10/24 01:56:31;;;;;;;16.17;7.70;;;1.80;99.90;;;;;;5273366;28;20531;-67
2021/10/24 01:59:03;;;;;;;13.97;6.50;;;1.80;99.90;;;;;;5273942;28;20223;-68
2021/10/24 02:01:35;;;;;;;13.63;6.20;;;1.80;99.90;;;;;;5255734;28;20228;-72
2021/10/24 02:04:08;;;;;;;15.20;7.07;;;1.80;99.90;;;;;;5272905;28;20200;-70
2021/10/24 02:06:40;;;;;;;11.77;6.20;;;1.80;99.90;;;;;;5239691;28;20247;-70
2021/10/24 02:09:12;;;;;;;16.37;6.70;;;1.80;99.90;;;;;;5273716;28;20210;-67
2021/10/24 02:11:46;;;;;;;14.73;6.83;;;1.80;99.90;;;;;;5255216;28;20224;-67
2021/10/24 02:14:18;;;;;;;16.17;6.83;;;1.80;99.90;;;;;;5255000;28;20211;-69
2021/10/24 02:16:50;;;;;;;14.30;6.70;;;1.80;99.90;;;;;;5272458;28;20228;-69
2021/10/24 02:19:22;;;;;;;14.73;6.50;;;1.80;99.90;;;;;;5238798;28;20368;-67
2021/10/24 02:21:54;;;;;;;13.10;6.70;;;1.70;99.90;;;;;;5272723;28;20239;-70
2021/10/24 02:24:29;;;;;;;13.60;6.40;;;1.70;99.90;;;;;;5272710;28;20188;-70
2021/10/24 02:27:01;;;;;;;11.27;5.80;;;1.70;99.90;;;;;;5255183;28;20250;-68
2021/10/24 02:29:36;;;;;;;11.60;6.03;;;1.70;99.90;;;;;;5273147;28;20210;-70
2021/10/24 02:32:08;;;;;;;15.20;6.10;;;1.70;99.90;;;;;;5272475;28;20199;-67
2021/10/24 02:34:41;;;;;;;13.07;6.00;;;1.70;99.90;;;;;;5255024;28;20229;-69
2021/10/24 02:37:13;;;;;;;11.23;6.03;;;1.70;99.90;;;;;;5272569;28;20252;-70
2021/10/24 02:39:46;;;;;;;13.53;6.37;;;1.70;99.90;;;;;;5273064;28;20607;-72
2021/10/24 02:42:18;;;;;;;12.27;6.10;;;1.70;99.90;;;;;;5272266;28;20211;-70
2021/10/24 02:44:52;;;;;;;13.60;6.63;;;1.60;99.90;;;;;;5273423;28;20215;-69
2021/10/24 02:47:26;;;;;;;13.83;5.93;;;1.60;99.90;;;;;;5272481;28;20211;-70
2021/10/24 02:49:58;;;;;;;11.63;5.97;;;1.50;99.90;;;;;;5273011;28;20185;-68
2021/10/24 02:52:31;;;;;;;12.87;6.20;;;1.50;99.90;;;;;;5271901;28;20208;-68
2021/10/24 02:55:05;;;;;;;11.60;5.47;;;1.50;99.90;;;;;;5254389;28;20244;-67
2021/10/24 02:57:37;;;;;;;15.00;5.90;;;1.50;99.90;;;;;;5253918;28;20200;-69
2021/10/24 03:00:11;;;;;;;9.43;5.60;;;1.50;99.90;;;;;;5272644;28;20631;-70
2021/10/24 03:02:44;;;;;;;11.63;5.93;;;1.40;99.90;;;;;;5238869;28;20271;-68
2021/10/24 03:05:16;;;;;;;11.37;5.50;;;1.40;99.90;;;;;;5254744;28;20576;-71
2021/10/24 03:07:51;;;;;;;11.23;5.43;;;1.40;99.90;;;;;;5254933;28;20208;-65
2021/10/24 03:10:23;;;;;;;10.40;5.43;;;1.40;99.90;;;;;;5272610;28;20210;-69
2021/10/24 03:12:55;;;;;;;12.77;5.60;;;1.30;99.90;;;;;;5254615;28;20207;-67
2021/10/24 03:15:27;;;;;;;12.20;6.23;;;1.30;99.90;;;;;;5254658;28;20241;-68
2021/10/24 03:17:59;;;;;;;14.30;5.93;;;1.30;99.90;;;;;;5271743;28;20219;-71
2021/10/24 03:20:32;;;;;;;13.47;6.30;;;1.30;99.90;;;;;;5271044;28;20204;-68
2021/10/24 03:23:07;;;;;;;13.17;6.20;;;1.30;99.90;;;;;;5272003;28;20204;-69
2021/10/24 03:25:39;;;;;;;11.07;6.50;;;1.30;99.90;;;;;;5237147;28;20231;-67
2021/10/24 03:28:11;;;;;;;14.73;6.50;;;1.20;99.90;;;;;;5253964;28;20638;-68
2021/10/24 03:30:44;;;;;;;12.13;6.73;;;1.20;99.90;;;;;;5253727;28;20230;-70
2021/10/24 03:33:19;;;;;;;13.73;6.83;;;1.20;99.90;;;;;;5271717;28;20211;-70
2021/10/24 03:35:51;;;;;;;13.97;6.63;;;1.20;99.90;;;;;;5271901;28;20211;-70
2021/10/24 03:38:24;;;;;;;12.63;6.63;;;1.10;99.90;;;;;;5220670;28;20231;-68
2021/10/24 03:40:56;;;;;;;19.33;8.30;;;1.10;99.90;;;;;;5271039;28;20223;-68
2021/10/24 03:43:29;;;;;;;15.07;7.17;;;1.00;99.90;;;;;;5271197;28;20204;-69
2021/10/24 03:46:01;;;;;;;20.07;8.80;;;1.00;99.90;;;;;;5253650;28;20252;-73
2021/10/24 03:48:34;;;;;;;17.10;8.17;;;1.00;99.90;;;;;;5270902;28;20231;-67
2021/10/24 03:51:06;;;;;;;20.20;9.57;;;1.00;99.90;;;;;;5253195;28;20208;-69
2021/10/24 03:53:38;;;;;;;19.97;9.17;;;1.10;99.90;;;;;;5271817;28;20553;-70
2021/10/24 03:56:11;;;;;;;19.43;8.47;;;1.10;99.90;;;;;;5270470;28;20227;-71
2021/10/24 03:58:44;;;;;;;18.53;8.33;;;1.10;99.90;;;;;;5253345;28;20239;-69
2021/10/24 04:01:16;;;;;;;18.23;7.80;;;1.10;99.90;;;;;;5270131;28;20668;-70
2021/10/24 04:03:48;;;;;;;16.53;7.37;;;1.10;99.90;;;;;;5271569;28;20541;-68
2021/10/24 04:06:20;;;;;;;15.70;7.87;;;1.10;99.90;;;;;;5271453;28;20224;-70
2021/10/24 04:08:55;;;;;;;14.50;7.47;;;1.10;99.90;;;;;;5253334;28;20208;-71
2021/10/24 04:11:27;;;;;;;14.20;6.50;;;1.10;99.90;;;;;;5252981;28;20203;-66
2021/10/24 04:13:58;;;;;;;12.27;6.70;;;1.10;99.90;;;;;;5253435;28;20491;-68
2021/10/24 04:16:31;;;;;;;13.83;7.70;;;1.10;99.90;;;;;;5236039;28;20274;-68
2021/10/24 04:19:05;;;;;;;16.87;7.60;;;1.10;99.90;;;;;;5270452;28;20518;-68
2021/10/24 04:21:37;;;;;;;18.77;7.97;;;1.10;99.90;;;;;;5252709;28;20210;-69
2021/10/24 04:24:09;;;;;;;20.17;7.73;;;1.10;99.90;;;;;;5270563;28;20204;-70
2021/10/24 04:26:41;;;;;;;16.37;7.70;;;1.10;99.90;;;;;;5236062;28;20228;-72
2021/10/24 04:29:13;;;;;;;17.43;7.80;;;1.10;99.90;;;;;;5270720;28;20200;-72
2021/10/24 04:31:45;;;;;;;16.23;7.17;;;1.10;99.90;;;;;;5270360;28;20362;-71
2021/10/24 04:34:20;;;;;;;16.93;7.33;;;1.10;99.90;;;;;;5254204;28;20572;-68
2021/10/24 04:36:52;;;;;;;19.10;7.97;;;1.20;99.90;;;;;;5272330;28;20318;-70
2021/10/24 04:39:27;;;;;;;16.63;7.50;;;1.20;99.90;;;;;;5254763;28;20279;-75
2021/10/24 04:41:59;;;;;;;17.77;7.67;;;1.20;99.90;;;;;;5269895;28;20228;-70
2021/10/24 04:44:34;;;;;;;17.30;7.17;;;1.20;99.90;;;;;;5253136;28;20235;-71
2021/10/24 04:47:06;;;;;;;21.73;8.77;;;1.20;99.90;;;;;;5269888;28;20242;-72
2021/10/24 04:49:40;;;;;;;16.77;8.50;;;1.20;99.90;;;;;;5270517;28;20204;-67
2021/10/24 04:52:12;;;;;;;16.30;7.53;;;1.20;99.90;;;;;;5270531;28;20219;-71
2021/10/24 04:54:45;;;;;;;17.07;7.40;;;1.20;99.90;;;;;;5253028;28;20662;-70
2021/10/24 04:57:21;;;;;;;15.13;6.90;;;1.20;99.90;;;;;;5253409;28;20250;-68
2021/10/24 04:59:53;;;;;;;11.63;6.00;;;1.20;99.90;;;;;;5236747;28;20211;-71
2021/10/24 05:02:25;;;;;;;16.87;6.17;;;1.30;99.90;;;;;;5252649;28;20232;-69
2021/10/24 05:04:57;;;;;;;9.87;5.70;;;1.30;99.90;;;;;;5270481;28;20519;-72
2021/10/24 05:07:29;;;;;;;14.33;6.33;;;1.30;99.90;;;;;;5273001;28;20541;-70
2021/10/24 05:10:01;;;;;;;17.40;7.57;;;1.30;99.90;;;;;;5273948;28;20608;-70
2021/10/24 05:12:35;;;;;;;20.77;9.17;;;1.30;99.90;;;;;;5274665;28;20235;-70
2021/10/24 05:15:07;;;;;;;17.23;7.47;;;1.30;99.90;;;;;;5257038;28;20502;-70
2021/10/24 05:17:39;;;;;;;12.73;6.67;;;1.30;99.90;;;;;;5240641;28;20644;-67
2021/10/24 05:20:11;;;;;;;18.13;6.13;;;1.40;99.90;;;;;;5257245;28;20219;-71
2021/10/24 05:22:44;;;;;;;10.87;5.67;;;1.40;99.90;;;;;;5274452;28;20672;-69
2021/10/24 05:25:18;;;;;;;12.23;6.07;;;1.50;99.90;;;;;;5275143;28;20210;-70
2021/10/24 05:27:54;;;;;;;11.03;5.13;;;1.40;99.90;;;;;;5274960;28;20239;-69
2021/10/24 05:30:26;;;;;;;10.77;5.37;;;1.50;99.90;;;;;;5257788;28;20204;-70
2021/10/24 05:33:01;;;;;;;9.17;4.60;;;1.50;99.90;;;;;;5274707;28;20267;-70
2021/10/24 05:35:33;;;;;;;9.80;4.83;;;1.50;99.90;;;;;;5256608;28;20227;-73
2021/10/24 05:38:05;;;;;;;9.00;4.53;;;1.50;99.90;;;;;;5272940;28;20236;-71
2021/10/24 05:40:37;;;;;;;9.63;4.70;;;1.60;99.90;;;;;;5255836;28;20200;-68
2021/10/24 05:43:09;;;;;;;12.77;5.67;;;1.60;99.90;;;;;;5273562;28;20234;-71
2021/10/24 05:45:44;;;;;;;9.87;4.57;;;1.70;99.90;;;;;;5263160;28;20266;-68
2021/10/24 05:48:16;;;;;;;10.33;4.70;;;1.70;99.90;;;;;;5251906;28;20553;-68
2021/10/24 05:50:49;;;;;;;9.60;4.70;;;1.80;99.90;;;;;;5251449;28;20193;-71
2021/10/24 05:53:21;;;;;;;12.17;4.80;;;1.80;99.90;;;;;;5234922;28;20225;-70
2021/10/24 05:55:53;;;;;;;10.33;4.37;;;1.90;99.90;;;;;;5252018;28;20204;-69
2021/10/24 05:58:25;;;;;;;8.07;4.23;;;2.00;99.90;;;;;;5218684;28;20231;-68
2021/10/24 06:00:58;;;;;;;8.87;4.50;;;2.20;99.90;;;;;;5252335;28;20219;-69
2021/10/24 06:03:30;;;;;;;10.27;5.10;;;2.60;99.90;;;;;;5235222;28;20224;-72
2021/10/24 06:06:02;;;;;;;9.47;5.03;;;3.00;99.90;;;;;;5218449;28;20229;-69
2021/10/24 06:08:36;;;;;;;9.47;5.37;;;3.60;99.90;;;;;;5234388;28;20228;-67
2021/10/24 06:13:50;;;;;;;10.63;5.70;;;4.80;99.90;;;;;;5252002;28;20255;-68
2021/10/24 06:16:22;;;;;;;9.77;4.57;;;5.60;99.90;;;;;;5234659;28;20208;-69
2021/10/24 06:18:55;;;;;;;7.07;4.23;;;6.50;99.90;;;;;;5250212;28;20233;-72
2021/10/24 06:21:27;;;;;;;7.70;3.27;;;7.50;99.90;;;;;;5251612;28;20231;-70
2021/10/24 06:23:59;;;;;;;5.63;3.20;;;8.40;99.90;;;;;;5251743;28;20229;-64
2021/10/24 06:26:31;;;;;;;5.27;3.13;;;9.10;99.90;;;;;;5233706;28;20220;-64
2021/10/24 06:29:06;;;;;;;7.93;3.13;;;9.70;99.90;;;;;;5234398;28;20680;-68
2021/10/24 06:31:38;;;;;;;5.23;3.00;;;10.10;99.90;;;;;;5217774;28;20200;-69
2021/10/24 06:34:15;;;;;;;7.13;3.57;;;10.30;99.90;;;;;;5234770;28;20225;-67
2021/10/24 06:36:47;;;;;;;8.10;3.60;;;10.20;99.90;;;;;;5252544;28;20213;-67
2021/10/24 06:39:19;;;;;;;6.83;3.70;;;10.10;99.90;;;;;;5231990;28;20247;-66
2021/10/24 06:41:51;;;;;;;8.67;4.07;;;9.90;99.90;;;;;;5166903;28;20616;-68
2021/10/24 06:44:23;;;;;;;10.13;4.60;;;9.80;99.90;;;;;;5233244;28;20232;-64
2021/10/24 06:46:57;;;;;;;18.17;5.93;;;9.60;99.90;;;;;;5233615;28;20235;-63
2021/10/24 06:49:30;;;;;;;14.47;6.03;;;9.50;99.90;;;;;;5166490;28;20546;-67
2021/10/24 06:52:05;;;;;;;13.60;6.13;;;9.60;99.90;;;;;;5217513;28;20215;-64
2021/10/24 06:54:37;;;;;;;15.73;5.90;;;9.60;99.90;;;;;;5166832;28;20231;-63
2021/10/24 06:57:10;;;;;;;11.87;5.67;;;9.30;99.90;;;;;;5166561;28;20245;-69
2021/10/24 06:59:42;;;;;;;13.77;5.90;;;8.90;99.90;;;;;;5165821;28;20235;-66
2021/10/24 07:02:17;;;;;;;14.20;5.97;;;8.70;99.90;;;;;;5165214;28;20541;-67
2021/10/24 07:04:49;;;;;;;11.37;5.50;;;8.30;99.90;;;;;;5164866;28;20250;-66
2021/10/24 07:07:23;;;;;;;9.70;4.50;;;7.80;99.90;;;;;;5166224;28;20505;-67
2021/10/24 07:09:55;;;;;;;9.67;4.93;;;7.40;99.90;;;;;;5165267;28;20231;-67
2021/10/24 07:12:27;;;;;;;9.73;4.27;;;7.20;99.90;;;;;;5215747;28;20214;-64
2021/10/24 07:14:59;;;;;;;11.73;4.37;;;7.00;99.90;;;;;;5147860;28;20683;-67
2021/10/24 07:17:31;;;;;;;12.63;4.50;;;7.00;99.90;;;;;;5164811;28;20203;-67
2021/10/24 07:20:07;;;;;;;8.90;4.27;;;6.90;99.90;;;;;;5149191;28;20235;-67
2021/10/24 07:22:40;;;;;;;10.30;4.47;;;6.90;99.90;;;;;;5165665;28;20211;-71
2021/10/24 07:25:12;;;;;;;9.40;4.50;;;6.80;99.90;;;;;;5232321;28;20242;-69
2021/10/24 07:27:44;;;;;;;7.33;4.10;;;6.90;99.90;;;;;;5148516;28;20243;-65
2021/10/24 07:30:16;;;;;;;11.90;4.70;;;6.80;99.90;;;;;;5234146;28;20305;-65
2021/10/24 07:32:48;;;;;;;10.53;4.20;;;6.90;99.90;;;;;;5180889;28;20204;-54
2021/10/24 07:35:21;;;;;;;9.40;4.70;;;6.90;99.90;;;;;;5211050;28;20235;-65
2021/10/24 07:37:54;;;;;;;8.17;4.10;;;6.90;99.90;;;;;;5189593;28;20224;-67
2021/10/24 07:40:26;;;;;;;11.00;5.03;;;6.90;99.90;;;;;;5284394;28;20197;-67
2021/10/24 07:43:01;;;;;;;8.83;4.50;;;6.90;99.90;;;;;;5271855;28;20200;-71
2021/10/24 07:45:33;;;;;;;11.73;5.10;;;6.90;99.90;;;;;;5270931;28;20223;-67
2021/10/24 07:48:05;;;;;;;15.17;6.37;;;6.90;99.90;;;;;;5253708;28;20243;-69
2021/10/24 07:50:40;;;;;;;13.97;6.57;;;6.90;99.90;;;;;;5271097;28;20687;-68
2021/10/24 07:53:13;;;;;;;15.67;6.20;;;6.90;99.90;;;;;;5253682;28;20184;-69
2021/10/24 07:55:45;;;;;;;14.30;6.10;;;6.90;99.90;;;;;;5268915;28;20200;-73
2021/10/24 07:58:18;;;;;;;15.07;6.00;;;7.00;99.90;;;;;;5237258;28;20192;-70
2021/10/24 08:00:50;;;;;;;15.60;6.10;;;7.00;99.90;;;;;;5269772;28;20526;-73
2021/10/24 08:03:23;;;;;;;16.43;5.63;;;7.20;99.90;;;;;;5271317;28;20204;-70
2021/10/24 08:05:56;;;;;;;10.93;5.50;;;7.30;99.90;;;;;;5253112;28;20230;-70
2021/10/24 08:08:29;;;;;;;14.77;5.83;;;7.50;99.90;;;;;;5271102;28;20651;-68
2021/10/24 08:11:02;;;;;;;13.23;5.77;;;7.60;99.90;;;;;;5253218;28;20216;-68
2021/10/24 08:13:35;;;;;;;12.17;5.80;;;7.70;99.90;;;;;;5271176;28;20200;-65
2021/10/24 08:16:10;;;;;;;12.63;5.20;;;7.70;99.90;;;;;;5271031;28;20536;-58
2021/10/24 08:18:42;;;;;;;14.37;6.00;;;7.80;99.90;;;;;;5253830;28;20203;-55
2021/10/24 08:21:14;;;;;;;16.27;5.30;;;7.90;99.90;;;;;;5251634;28;20220;-55
2021/10/24 08:23:49;;;;;;;17.67;5.37;;;7.90;99.90;;;;;;5251828;28;20197;-54
2021/10/24 08:26:23;;;;;;;11.37;5.37;;;8.00;99.90;;;;;;5269516;28;20196;-59
2021/10/24 08:28:55;;;;;;;12.20;6.03;;;8.10;99.90;;;;;;5273604;28;20320;-54
2021/10/24 08:31:29;;;;;;;11.97;5.60;;;8.20;99.90;;;;;;5281642;28;20231;-59
2021/10/24 08:34:02;;;;;;;10.90;4.90;;;8.30;99.90;;;;;;5267038;28;20289;-55
2021/10/24 08:36:34;;;;;;;12.73;5.77;;;8.40;99.90;;;;;;5279677;28;20192;-68
2021/10/24 08:39:06;;;;;;;10.20;4.73;;;8.50;99.90;;;;;;5195413;28;20725;-63
2021/10/24 08:41:42;;;;;;;12.80;5.83;;;8.50;99.90;;;;;;5233005;28;20533;-64
2021/10/24 08:44:15;;;;;;;14.17;5.73;;;8.60;99.90;;;;;;5191121;28;20222;-66
2021/10/24 08:46:49;;;;;;;15.30;5.40;;;8.70;99.90;;;;;;5243670;28;20222;-66
2021/10/24 08:49:21;;;;;;;15.03;6.33;;;8.70;99.90;;;;;;5189029;28;20629;-65
2021/10/24 08:51:53;;;;;;;15.00;6.13;;;8.70;99.90;;;;;;5258167;28;20200;-66
2021/10/24 08:54:33;;;;;;;15.50;5.50;;;8.70;99.90;;;;;;5185621;28;20203;-65
2021/10/24 08:57:05;;;;;;;14.43;5.63;;;8.70;99.90;;;;;;5266494;28;20567;-68
2021/10/24 08:59:40;;;;;;;18.50;5.53;;;8.80;99.90;;;;;;5233850;28;20214;-67
2021/10/24 09:02:12;;;;;;;15.90;5.37;;;8.90;99.90;;;;;;5162820;28;20207;-66
2021/10/24 09:04:51;;;;;;;12.93;5.50;;;9.00;99.90;;;;;;5164522;28;20295;-65
2021/10/24 09:07:39;;;;;;;13.07;4.87;;;9.10;99.90;;;;;;5164717;28;20219;-69
2021/10/24 09:10:13;;;;;;;16.80;5.53;;;9.30;99.90;;;;;;5148171;28;20238;-69
2021/10/24 09:13:01;;;;;;;10.33;5.10;;;9.40;99.90;;;;;;5164315;28;20212;-63
2021/10/24 09:16:04;;;;;;;17.03;6.53;;;9.50;99.90;;;;;;5164411;28;20216;-65
2021/10/24 09:18:43;;;;;;;15.97;5.30;;;9.70;99.90;;;;;;5170543;28;20223;-68
2021/10/24 09:21:26;;;;;;;13.27;5.47;;;9.80;99.90;;;;;;5142805;28;20204;-65
2021/10/24 09:24:04;;;;;;;11.47;4.40;;;10.00;99.90;;;;;;5144116;28;20203;-66
2021/10/24 09:26:40;;;;;;;9.43;4.43;;;10.10;99.90;;;;;;5155335;28;20609;-68
2021/10/24 09:29:14;;;;;;;9.13;4.10;;;10.30;99.90;;;;;;5146986;28;20203;-64
2021/10/24 09:31:51;;;;;;;11.23;3.80;;;10.40;99.90;;;;;;5164490;28;20552;-66
2021/10/24 09:34:25;;;;;;;10.10;3.50;;;10.50;99.90;;;;;;5163953;28;20208;-66
2021/10/24 09:37:00;;;;;;;8.97;4.23;;;10.50;99.90;;;;;;5149684;28;20616;-67
2021/10/24 09:39:36;;;;;;;11.97;3.33;;;10.60;99.90;;;;;;5267288;28;20359;-65
2021/10/24 09:42:22;;;;;;;15.57;4.30;;;10.60;99.90;;;;;;5269507;28;20200;-68
2021/10/24 09:45:09;;;;;;;11.13;3.73;;;10.70;99.90;;;;;;5250932;28;20525;-69
2021/10/24 09:47:48;;;;;;;15.77;4.10;;;10.70;99.90;;;;;;5269777;28;20270;-69
2021/10/24 09:50:39;;;;;;;13.07;4.00;;;10.70;99.90;;;;;;5268880;28;20224;-67
2021/10/24 09:53:18;;;;;;;9.17;3.33;;;10.70;99.90;;;;;;5271723;28;20501;-68
2021/10/24 09:55:53;;;;;;;9.70;3.63;;;10.70;99.90;;;;;;5273235;28;20235;-74
2021/10/24 09:58:35;;;;;;;10.37;3.17;;;10.60;99.90;;;;;;5273114;28;20291;-65
2021/10/24 10:01:10;;;;;;;5.87;2.53;;;10.50;99.90;;;;;;5255167;28;20215;-64
2021/10/24 10:03:48;;;;;;;8.73;2.73;;;10.40;99.90;;;;;;5273163;28;20286;-66
2021/10/24 10:06:24;;;;;;;10.67;2.80;;;10.30;99.90;;;;;;5255618;28;20277;-65
2021/10/24 10:09:01;;;;;;;7.47;2.80;;;10.30;99.90;;;;;;5272892;28;20667;-67
2021/10/24 10:11:41;;;;;;;10.33;2.23;;;10.30;99.90;;;;;;5272695;28;20231;-64
2021/10/24 10:14:33;;;;;;;9.50;2.30;;;10.20;99.90;;;;;;5228867;28;20617;-65
2021/10/24 10:17:19;;;;;;;8.00;2.23;;;10.10;99.90;;;;;;5229428;28;20229;-65
2021/10/24 10:19:51;;;;;;;11.20;2.73;;;10.20;99.90;;;;;;5229547;28;20223;-65
2021/10/24 10:22:27;;;;;;;9.37;2.73;;;10.20;99.90;;;;;;5229242;28;20229;-68
2021/10/24 10:25:00;;;;;;;12.13;2.70;;;10.20;99.90;;;;;;5222950;28;20534;-66
2021/10/24 10:27:34;;;;;;;9.90;2.90;;;10.30;99.90;;;;;;5249967;28;20244;-66
2021/10/24 10:30:08;;;;;;;10.43;3.10;;;10.40;99.90;;;;;;5249449;28;20204;-65
2021/10/24 10:32:49;;;;;;;6.87;2.50;;;10.60;99.90;;;;;;5249372;28;20550;-68
2021/10/24 10:35:23;;;;;;;12.57;2.47;;;10.70;99.90;;;;;;5250401;28;20204;-66
2021/10/24 10:37:56;;;;;;;11.10;2.57;;;10.80;99.90;;;;;;5249823;28;20256;-68
2021/10/24 10:40:39;;;;;;;11.83;2.80;;;10.80;99.90;;;;;;5249702;28;20214;-68
2021/10/24 10:43:17;;;;;;;10.13;2.23;;;10.90;99.90;;;;;;5248404;28;20244;-69
2021/10/24 10:45:57;;;;;;;9.37;2.50;;;10.90;99.90;;;;;;5246128;28;20219;-71
2021/10/24 10:48:39;;;;;;;8.00;2.40;;;10.90;99.90;;;;;;5254557;28;20241;-66
2021/10/24 10:51:31;;;;;;;9.63;1.97;;;11.00;99.90;;;;;;5252437;28;20204;-73
2021/10/24 10:54:05;;;;;;;6.97;2.57;;;11.10;99.90;;;;;;5224302;28;20216;-65
2021/10/24 10:56:54;;;;;;;9.07;1.80;;;11.20;99.90;;;;;;5269444;28;20207;-67
2021/10/24 10:59:32;;;;;;;8.23;2.77;;;11.30;99.90;;;;;;5251070;28;20544;-71
2021/10/24 11:02:28;;;;;;;5.00;1.90;;;11.30;99.90;;;;;;5272758;28;20582;-67
2021/10/24 11:05:06;;;;;;;9.83;1.80;;;11.40;99.90;;;;;;5271888;28;20263;-70
2021/10/24 11:07:39;;;;;;;8.73;2.23;;;11.40;99.90;;;;;;5272693;28;20658;-69
2021/10/24 11:10:17;;;;;;;8.00;2.40;;;11.50;99.90;;;;;;5255812;28;20236;-68
2021/10/24 11:12:50;;;;;;;9.40;2.17;;;11.50;99.90;;;;;;5273288;28;20292;-67
2021/10/24 11:15:29;;;;;;;7.53;1.87;;;11.70;99.90;;;;;;5273560;28;20227;-70
2021/10/24 11:18:02;;;;;;;4.90;1.47;;;11.80;99.90;;;;;;5272678;28;20188;-67
2021/10/24 11:20:40;;;;;;;5.47;1.90;;;11.90;99.90;;;;;;5254142;28;20216;-68
2021/10/24 11:23:14;;;;;;;5.50;2.27;;;12.00;99.90;;;;;;5254598;28;20282;-71
2021/10/24 11:25:55;;;;;;;8.57;2.17;;;12.00;99.90;;;;;;5254886;28;20196;-71
2021/10/24 11:28:29;;;;;;;12.47;2.23;;;12.00;99.90;;;;;;5272179;28;20246;-69
2021/10/24 11:31:06;;;;;;;7.67;1.70;;;11.90;99.90;;;;;;5271771;28;20204;-68
2021/10/24 11:33:54;;;;;;;8.93;1.80;;;11.80;99.90;;;;;;5270601;28;20242;-67
2021/10/24 11:36:28;;;;;;;18.47;5.17;;;11.70;99.90;;;;;;5252878;28;20210;-69
2021/10/24 11:39:03;;;;;;;6.87;1.80;;;11.70;99.90;;;;;;5253221;28;20255;-71
2021/10/24 11:41:35;;;;;;;6.93;1.93;;;11.70;99.90;;;;;;5271313;28;20203;-70
2021/10/24 11:44:10;;;;;;;4.43;1.50;;;11.80;99.90;;;;;;5253892;28;20605;-68
2021/10/24 11:46:42;;;;;;;8.27;1.67;;;11.90;99.90;;;;;;5253569;28;20283;-69
2021/10/24 11:49:17;;;;;;;8.97;1.80;;;12.10;99.90;;;;;;5270648;28;20227;-68
2021/10/24 11:51:55;;;;;;;6.07;1.67;;;12.30;99.90;;;;;;5252826;28;20199;-69
2021/10/24 11:54:27;;;;;;;6.30;1.70;;;12.40;99.90;;;;;;5268250;28;20199;-72
2021/10/24 11:57:28;;;;;;;6.27;1.83;;;12.40;99.90;;;;;;5285081;28;20650;-69
2021/10/24 12:03:00;;;;;;;8.33;1.63;;;12.70;99.90;;;;;;5276758;28;20533;-68
2021/10/24 12:05:39;;;;;;;4.67;1.40;;;13.10;99.90;;;;;;5292515;28;20538;-64
2021/10/24 12:08:12;;;;;;;5.33;1.47;;;13.20;99.90;;;;;;5292146;28;20222;-66
2021/10/24 12:10:49;;;;;;;13.63;3.80;;;13.20;99.90;;;;;;5292241;28;20199;-64
2021/10/24 12:13:42;;;;;;;5.20;1.53;;;13.20;99.90;;;;;;5292269;28;20488;-64
2021/10/24 12:16:36;;;;;;;8.53;1.80;;;12.90;99.90;;;;;;5227848;28;20232;-72
2021/10/24 12:19:19;;;;;;;5.33;2.03;;;12.60;99.90;;;;;;5211123;28;20215;-63
2021/10/24 12:22:05;;;;;;;7.17;1.87;;;12.40;99.90;;;;;;5227411;28;20229;-65
2021/10/24 12:24:44;;;;;;;5.80;1.90;;;12.40;99.90;;;;;;5195998;28;20205;-62
2021/10/24 12:27:21;;;;;;;6.07;2.00;;;12.40;99.90;;;;;;5226849;28;20221;-64
2021/10/24 12:30:08;;;;;;;7.20;1.97;;;12.50;99.90;;;;;;5226714;28;20551;-67
2021/10/24 12:33:01;;;;;;;7.40;2.07;;;12.60;99.90;;;;;;5227288;28;20221;-65
2021/10/24 12:35:48;;;;;;;6.33;2.03;;;12.80;99.90;;;;;;5226657;28;20186;-67
2021/10/24 12:38:23;;;;;;;7.70;2.13;;;12.80;99.90;;;;;;5224156;28;20237;-67
2021/10/24 12:40:57;;;;;;;8.13;1.77;;;12.70;99.90;;;;;;5216020;28;20641;-68
2021/10/24 12:43:29;;;;;;;12.10;2.10;;;12.60;99.90;;;;;;5210795;28;20197;-72
2021/10/24 12:46:03;;;;;;;5.10;1.67;;;12.40;99.90;;;;;;5208611;28;20256;-65
2021/10/24 12:48:47;;;;;;;5.83;1.50;;;12.20;99.90;;;;;;5159041;28;20256;-67
2021/10/24 12:51:30;;;;;;;5.70;1.47;;;12.10;99.90;;;;;;5147273;28;20595;-69
2021/10/24 12:54:05;;;;;;;4.50;1.60;;;12.10;99.90;;;;;;5131436;28;20219;-68
2021/10/24 12:56:40;;;;;;;8.27;1.93;;;12.30;99.90;;;;;;5146407;28;20373;-67
2021/10/24 12:59:14;;;;;;;3.53;1.63;;;12.50;99.90;;;;;;5148184;28;20211;-70
2021/10/24 13:01:51;;;;;;;6.93;1.60;;;12.60;99.90;;;;;;5163167;28;20490;-69
2021/10/24 13:04:24;;;;;;;8.63;1.80;;;12.60;99.90;;;;;;5164049;28;20223;-70
2021/10/24 13:06:56;;;;;;;6.53;1.73;;;12.60;99.90;;;;;;5158981;28;20204;-72
2021/10/24 13:09:28;;;;;;;5.57;1.60;;;12.50;99.90;;;;;;5158920;28;20631;-72
2021/10/24 13:12:00;;;;;;;9.70;1.83;;;12.50;99.90;;;;;;5163606;28;20196;-73
2021/10/24 13:14:32;;;;;;;7.17;1.80;;;12.40;99.90;;;;;;5146565;28;20609;-70
2021/10/24 13:17:06;;;;;;;4.13;1.50;;;12.30;99.90;;;;;;5134910;28;20199;-71
2021/10/24 13:19:41;;;;;;;6.03;1.80;;;12.20;99.90;;;;;;5146846;28;20231;-70
2021/10/24 13:25:09;;;;;;;3.60;1.63;;;12.00;99.90;;;;;;5149784;28;20224;-71
2021/10/24 13:27:41;;;;;;;4.33;1.47;;;12.00;99.90;;;;;;5165859;28;20199;-70
2021/10/24 13:30:13;;;;;;;8.50;1.70;;;12.00;99.90;;;;;;5168277;28;20254;-69
2021/10/24 13:32:45;;;;;;;6.00;1.53;;;11.90;99.90;;;;;;5168164;28;20207;-70
2021/10/24 13:35:18;;;;;;;4.90;1.40;;;11.80;99.90;;;;;;5168146;28;20228;-70